Emmet, NE (68734)

1:02 PM CDT on June 21, 2018 (GMT -0500)
Lorenz Farms | | Change Station

Elev 2014 ft 42.52 °N, 98.72 °W | Updated 4 minutes ago

Overcast
Overcast
72.4 °F
Feels Like 76 °F
N
13
Wind Variable Wind from North
Gusts 24.0 mph

Today
High -- | Low -- °F
--% Chance of Precip.
Yesterday
High -- | Low -- °F
Precip. -- in
Pressure 29.95 in
Visibility 10.0 miles
Clouds Mostly Cloudy 3800 ft
Heat Index 76 °F
Dew Point 57 °F
Humidity 61%
Rainfall 0.09 in
Snow Depth Not available.
5:58 AM 9:16 PM
Waxing Gibbous, 64% visible
METAR KONL 211755Z AUTO 35018G24KT 10SM BKN038 23/15 A2995 RMK AO2 60008 T02340148 10234 20163
Pressure 29.95 in
Visibility 10.0 miles
Clouds Mostly Cloudy 3800 ft
Heat Index 76 °F
Dew Point 57 °F
Humidity 61%
Rainfall 0.09 in
Snow Depth Not available.
5:58 AM 9:16 PM
Waxing Gibbous, 64% visible
METAR KONL 211755Z AUTO 35018G24KT 10SM BKN038 23/15 A2995 RMK AO2 60008 T02340148 10234 20163

Get Severe Weather Alerts

Thanks for signing up!

Be on the lookout for a verification email in your inbox.

You'll start receiving the daily forecast at 6 AM.

×

10-Day Weather Forecast

Almanac

Astronomy

Jun. 21, 2018 Rise Set
Actual Time
Civil Twilight
Nautical Twilight
Astronomical Twilight
Moon
Length of Visible Light
Length of Day
Tomorrow will be .
, % of the Moon is Illuminated

Today's Extremes

State Highs State Lows

Community

WunderPhotos

Category 6

Welcome to Category 6. This is the collective home for Weather Underground's featured writeups by Dr. Jeff Masters (right), Bob Henson (left), Chris Burt, and other regular contributors.

Nearby

Air Quality

  Air Quality AQ Index Pollutant
Not available.

Snow Depth

Station Depth Elevation

Earthquake Activity

City Distance Mag. Time & Date
Minimum magnitude displayed is 2.5.

Coastal Water Temperatures

Place Temperature

Stations

Nearby Weather Stations

Station Location Temp. Windchill Dew Point Humidity Wind Precip. Elev Updated Type
                   

Watches & Warnings

There are currently no watches in effect.